sensor_id;sensor_type;location;lat;lon;timestamp;pressure;altitude;pressure_sealevel;temperature;humidity
14242;BME280;7205;50.864;12.766;2022-11-20T00:01:05;97203.56;;;-3.89;77.35
14242;BME280;7205;50.864;12.766;2022-11-20T00:03:32;97203.56;;;-3.89;77.60
14242;BME280;7205;50.864;12.766;2022-11-20T00:06:00;97208.78;;;-3.90;77.08
14242;BME280;7205;50.864;12.766;2022-11-20T00:08:27;97218.00;;;-3.86;77.28
14242;BME280;7205;50.864;12.766;2022-11-20T00:11:02;97215.63;;;-3.89;77.19
14242;BME280;7205;50.864;12.766;2022-11-20T00:13:30;97208.25;;;-3.95;77.08
14242;BME280;7205;50.864;12.766;2022-11-20T00:15:57;97211.47;;;-3.92;77.03
14242;BME280;7205;50.864;12.766;2022-11-20T00:18:35;97213.16;;;-3.91;77.00
14242;BME280;7205;50.864;12.766;2022-11-20T00:21:32;97204.03;;;-3.96;77.35
14242;BME280;7205;50.864;12.766;2022-11-20T00:23:59;97210.03;;;-3.96;76.99
14242;BME280;7205;50.864;12.766;2022-11-20T00:26:32;97204.97;;;-3.97;77.17
14242;BME280;7205;50.864;12.766;2022-11-20T00:29:02;97208.38;;;-3.97;77.18
14242;BME280;7205;50.864;12.766;2022-11-20T00:31:35;97200.94;;;-4.01;77.34
14242;BME280;7205;50.864;12.766;2022-11-20T00:34:02;97204.34;;;-4.01;77.10
14242;BME280;7205;50.864;12.766;2022-11-20T00:36:32;97199.19;;;-4.01;77.32
14242;BME280;7205;50.864;12.766;2022-11-20T00:38:59;97204.44;;;-4.02;76.74
14242;BME280;7205;50.864;12.766;2022-11-20T00:41:32;97192.03;;;-4.10;77.12
14242;BME280;7205;50.864;12.766;2022-11-20T00:44:01;97208.75;;;-4.03;76.94
14242;BME280;7205;50.864;12.766;2022-11-20T00:46:28;97206.59;;;-4.09;77.03
14242;BME280;7205;50.864;12.766;2022-11-20T00:48:55;97212.66;;;-4.10;76.86
14242;BME280;7205;50.864;12.766;2022-11-20T00:51:26;97211.91;;;-4.12;76.64
14242;BME280;7205;50.864;12.766;2022-11-20T00:53:57;97211.19;;;-4.14;76.60
14242;BME280;7205;50.864;12.766;2022-11-20T00:56:25;97206.75;;;-4.12;76.86
14242;BME280;7205;50.864;12.766;2022-11-20T00:58:54;97201.06;;;-4.17;77.04
14242;BME280;7205;50.864;12.766;2022-11-20T01:01:24;97206.13;;;-4.15;76.74
14242;BME280;7205;50.864;12.766;2022-11-20T01:03:53;97206.22;;;-4.17;76.92
14242;BME280;7205;50.864;12.766;2022-11-20T01:06:22;97199.41;;;-4.18;76.59
14242;BME280;7205;50.864;12.766;2022-11-20T01:08:51;97196.00;;;-4.18;76.55
14242;BME280;7205;50.864;12.766;2022-11-20T01:11:22;97200.44;;;-4.20;76.73
14242;BME280;7205;50.864;12.766;2022-11-20T01:17:47;97204.97;;;-4.24;76.34
14242;BME280;7205;50.864;12.766;2022-11-20T01:20:14;97196.69;;;-4.29;76.62
14242;BME280;7205;50.864;12.766;2022-11-20T01:22:41;97189.97;;;-4.31;76.45
14242;BME280;7205;50.864;12.766;2022-11-20T01:25:08;97193.50;;;-4.32;76.20
14242;BME280;7205;50.864;12.766;2022-11-20T01:27:35;97185.13;;;-4.36;76.41
14242;BME280;7205;50.864;12.766;2022-11-20T01:30:04;97181.72;;;-4.36;76.36
14242;BME280;7205;50.864;12.766;2022-11-20T01:32:31;97177.50;;;-4.37;76.24
14242;BME280;7205;50.864;12.766;2022-11-20T01:34:57;97180.88;;;-4.37;76.21
14242;BME280;7205;50.864;12.766;2022-11-20T01:37:24;97173.97;;;-4.36;75.88
14242;BME280;7205;50.864;12.766;2022-11-20T01:39:51;97172.34;;;-4.37;76.43
14242;BME280;7205;50.864;12.766;2022-11-20T01:42:18;97170.78;;;-4.40;76.47
14242;BME280;7205;50.864;12.766;2022-11-20T01:48:05;97165.53;;;-4.38;76.44
14242;BME280;7205;50.864;12.766;2022-11-20T01:50:32;97168.09;;;-4.38;76.90
14242;BME280;7205;50.864;12.766;2022-11-20T01:53:18;97174.91;;;-4.37;76.31
14242;BME280;7205;50.864;12.766;2022-11-20T01:56:01;97167.28;;;-4.39;76.71
14242;BME280;7205;50.864;12.766;2022-11-20T01:58:33;97167.19;;;-4.37;76.81
14242;BME280;7205;50.864;12.766;2022-11-20T02:01:00;97162.22;;;-4.40;76.43
14242;BME280;7205;50.864;12.766;2022-11-20T02:03:29;97163.88;;;-4.39;76.70
14242;BME280;7205;50.864;12.766;2022-11-20T02:06:02;97164.72;;;-4.39;76.32
14242;BME280;7205;50.864;12.766;2022-11-20T02:08:31;97161.31;;;-4.39;76.58
14242;BME280;7205;50.864;12.766;2022-11-20T02:10:58;97159.63;;;-4.40;76.72
14242;BME280;7205;50.864;12.766;2022-11-20T02:13:25;97172.34;;;-4.37;76.79
14242;BME280;7205;50.864;12.766;2022-11-20T02:16:12;97164.72;;;-4.39;76.57
14242;BME280;7205;50.864;12.766;2022-11-20T02:18:44;97171.50;;;-4.38;76.60
14242;BME280;7205;50.864;12.766;2022-11-20T02:21:23;97163.25;;;-4.43;76.76
14242;BME280;7205;50.864;12.766;2022-11-20T02:24:04;97148.19;;;-4.49;76.67
14242;BME280;7205;50.864;12.766;2022-11-20T02:26:34;97153.13;;;-4.46;76.71
14242;BME280;7205;50.864;12.766;2022-11-20T02:29:03;97148.78;;;-4.45;76.71
14242;BME280;7205;50.864;12.766;2022-11-20T02:31:36;97147.97;;;-4.46;76.77
14242;BME280;7205;50.864;12.766;2022-11-20T02:34:03;97146.22;;;-4.45;77.00
14242;BME280;7205;50.864;12.766;2022-11-20T02:36:32;97148.88;;;-4.47;76.83
14242;BME280;7205;50.864;12.766;2022-11-20T02:38:59;97154.03;;;-4.47;76.76
14242;BME280;7205;50.864;12.766;2022-11-20T02:41:33;97154.88;;;-4.46;76.95
14242;BME280;7205;50.864;12.766;2022-11-20T02:44:00;97151.47;;;-4.47;77.01
14242;BME280;7205;50.864;12.766;2022-11-20T02:46:26;97147.25;;;-4.48;76.96
14242;BME280;7205;50.864;12.766;2022-11-20T02:48:53;97146.41;;;-4.48;76.59
14242;BME280;7205;50.864;12.766;2022-11-20T02:51:20;97153.34;;;-4.49;76.73
14242;BME280;7205;50.864;12.766;2022-11-20T02:53:47;97149.19;;;-4.51;76.82
14242;BME280;7205;50.864;12.766;2022-11-20T02:56:14;97150.91;;;-4.52;76.47
14242;BME280;7205;50.864;12.766;2022-11-20T02:58:42;97145.97;;;-4.55;76.72
14242;BME280;7205;50.864;12.766;2022-11-20T03:01:09;97148.53;;;-4.55;76.50
14242;BME280;7205;50.864;12.766;2022-11-20T03:03:36;97153.69;;;-4.55;76.55
14242;BME280;7205;50.864;12.766;2022-11-20T03:06:03;97158.22;;;-4.58;76.48
14242;BME280;7205;50.864;12.766;2022-11-20T03:08:29;97148.09;;;-4.61;76.07
14242;BME280;7205;50.864;12.766;2022-11-20T03:10:56;97145.53;;;-4.61;76.24
14242;BME280;7205;50.864;12.766;2022-11-20T03:13:25;97146.47;;;-4.62;76.46
14242;BME280;7205;50.864;12.766;2022-11-20T03:15:53;97139.75;;;-4.65;76.15
14242;BME280;7205;50.864;12.766;2022-11-20T03:18:20;97141.47;;;-4.65;76.09
14242;BME280;7205;50.864;12.766;2022-11-20T03:20:46;97141.56;;;-4.67;76.17
14242;BME280;7205;50.864;12.766;2022-11-20T03:23:13;97134.88;;;-4.69;76.08
14242;BME280;7205;50.864;12.766;2022-11-20T03:25:40;97136.63;;;-4.70;76.25
14242;BME280;7205;50.864;12.766;2022-11-20T03:28:07;97140.88;;;-4.69;76.32
14242;BME280;7205;50.864;12.766;2022-11-20T03:30:34;97135.78;;;-4.70;76.11
14242;BME280;7205;50.864;12.766;2022-11-20T03:33:02;97138.28;;;-4.69;76.66
14242;BME280;7205;50.864;12.766;2022-11-20T03:35:29;97132.13;;;-4.66;76.41
14242;BME280;7205;50.864;12.766;2022-11-20T03:37:57;97133.84;;;-4.67;76.46
14242;BME280;7205;50.864;12.766;2022-11-20T03:40:24;97122.75;;;-4.67;76.40
14242;BME280;7205;50.864;12.766;2022-11-20T03:42:51;97119.44;;;-4.69;76.42
14242;BME280;7205;50.864;12.766;2022-11-20T03:45:18;97116.13;;;-4.71;76.32
14242;BME280;7205;50.864;12.766;2022-11-20T03:47:45;97112.72;;;-4.72;76.50
14242;BME280;7205;50.864;12.766;2022-11-20T03:50:14;97114.28;;;-4.69;76.05
14242;BME280;7205;50.864;12.766;2022-11-20T03:52:41;97110.03;;;-4.70;76.35
14242;BME280;7205;50.864;12.766;2022-11-20T03:55:08;97104.09;;;-4.71;76.45
14242;BME280;7205;50.864;12.766;2022-11-20T03:57:35;97106.56;;;-4.69;76.60
14242;BME280;7205;50.864;12.766;2022-11-20T04:00:02;97096.38;;;-4.71;76.38
14242;BME280;7205;50.864;12.766;2022-11-20T04:02:30;97097.91;;;-4.68;76.59
14242;BME280;7205;50.864;12.766;2022-11-20T04:04:56;97094.69;;;-4.72;76.48
14242;BME280;7205;50.864;12.766;2022-11-20T04:07:24;97093.06;;;-4.73;76.50
14242;BME280;7205;50.864;12.766;2022-11-20T04:09:51;97097.28;;;-4.72;76.37
14242;BME280;7205;50.864;12.766;2022-11-20T04:12:18;97099.94;;;-4.73;76.30
14242;BME280;7205;50.864;12.766;2022-11-20T04:14:45;97103.56;;;-4.76;76.18
14242;BME280;7205;50.864;12.766;2022-11-20T04:17:12;97107.97;;;-4.78;76.08
14242;BME280;7205;50.864;12.766;2022-11-20T04:19:38;97095.09;;;-4.78;76.25
14242;BME280;7205;50.864;12.766;2022-11-20T04:22:05;97094.44;;;-4.81;76.16
14242;BME280;7205;50.864;12.766;2022-11-20T04:24:33;97097.13;;;-4.83;76.06
14242;BME280;7205;50.864;12.766;2022-11-20T04:27:00;97100.44;;;-4.81;76.19
14242;BME280;7205;50.864;12.766;2022-11-20T04:29:27;97106.38;;;-4.80;76.22
14242;BME280;7205;50.864;12.766;2022-11-20T04:31:54;97097.13;;;-4.83;76.12
14242;BME280;7205;50.864;12.766;2022-11-20T04:34:21;97103.09;;;-4.82;76.12
14242;BME280;7205;50.864;12.766;2022-11-20T04:36:48;97103.91;;;-4.82;76.03
14242;BME280;7205;50.864;12.766;2022-11-20T04:39:14;97106.47;;;-4.82;75.74
14242;BME280;7205;50.864;12.766;2022-11-20T04:41:43;97106.59;;;-4.83;75.72
14242;BME280;7205;50.864;12.766;2022-11-20T04:44:11;97111.81;;;-4.85;75.62
14242;BME280;7205;50.864;12.766;2022-11-20T04:46:39;97108.50;;;-4.87;75.52
14242;BME280;7205;50.864;12.766;2022-11-20T04:49:07;97111.00;;;-4.85;75.99
14242;BME280;7205;50.864;12.766;2022-11-20T04:51:35;97104.19;;;-4.86;75.68
14242;BME280;7205;50.864;12.766;2022-11-20T04:54:02;97111.00;;;-4.85;75.53
14242;BME280;7205;50.864;12.766;2022-11-20T04:56:30;97105.03;;;-4.86;75.48
14242;BME280;7205;50.864;12.766;2022-11-20T04:59:01;97103.28;;;-4.85;75.61
14242;BME280;7205;50.864;12.766;2022-11-20T05:01:28;97106.88;;;-4.88;76.09
14242;BME280;7205;50.864;12.766;2022-11-20T05:03:55;97101.72;;;-4.88;75.68
14242;BME280;7205;50.864;12.766;2022-11-20T05:06:22;97102.72;;;-4.90;75.42
14242;BME280;7205;50.864;12.766;2022-11-20T05:08:49;97104.31;;;-4.88;75.88
14242;BME280;7205;50.864;12.766;2022-11-20T05:11:17;97093.38;;;-4.91;75.50
14242;BME280;7205;50.864;12.766;2022-11-20T05:13:44;97094.31;;;-4.92;75.35
14242;BME280;7205;50.864;12.766;2022-11-20T05:16:14;97091.81;;;-4.94;75.52
14242;BME280;7205;50.864;12.766;2022-11-20T05:18:42;97090.16;;;-4.95;75.59
14242;BME280;7205;50.864;12.766;2022-11-20T05:21:09;97094.47;;;-4.95;75.51
14242;BME280;7205;50.864;12.766;2022-11-20T05:23:37;97083.47;;;-4.97;75.30
14242;BME280;7205;50.864;12.766;2022-11-20T05:26:04;97089.50;;;-4.98;75.56
14242;BME280;7205;50.864;12.766;2022-11-20T05:28:32;97086.19;;;-5.00;75.20
14242;BME280;7205;50.864;12.766;2022-11-20T05:31:04;97086.13;;;-4.99;75.43
14242;BME280;7205;50.864;12.766;2022-11-20T05:33:33;97079.31;;;-5.00;75.15
14242;BME280;7205;50.864;12.766;2022-11-20T05:36:00;97071.69;;;-5.01;75.39
14242;BME280;7205;50.864;12.766;2022-11-20T05:38:27;97074.38;;;-5.03;75.52
14242;BME280;7205;50.864;12.766;2022-11-20T05:40:54;97070.06;;;-5.02;75.39
14242;BME280;7205;50.864;12.766;2022-11-20T05:43:21;97072.72;;;-5.04;75.34
14242;BME280;7205;50.864;12.766;2022-11-20T05:45:54;97074.47;;;-5.04;75.32
14242;BME280;7205;50.864;12.766;2022-11-20T05:48:21;97071.16;;;-5.06;75.28
14242;BME280;7205;50.864;12.766;2022-11-20T05:50:49;97063.53;;;-5.08;75.02
14242;BME280;7205;50.864;12.766;2022-11-20T05:53:16;97066.19;;;-5.09;75.34
14242;BME280;7205;50.864;12.766;2022-11-20T05:55:43;97064.38;;;-5.07;75.06
14242;BME280;7205;50.864;12.766;2022-11-20T05:58:10;97065.16;;;-5.07;74.97
14242;BME280;7205;50.864;12.766;2022-11-20T06:00:37;97066.84;;;-5.06;75.26
14242;BME280;7205;50.864;12.766;2022-11-20T06:03:04;97059.31;;;-5.09;75.16
14242;BME280;7205;50.864;12.766;2022-11-20T06:05:33;97058.28;;;-5.06;75.15
14242;BME280;7205;50.864;12.766;2022-11-20T06:08:01;97069.50;;;-5.07;74.86
14242;BME280;7205;50.864;12.766;2022-11-20T06:10:28;97073.09;;;-5.10;75.23
14242;BME280;7205;50.864;12.766;2022-11-20T06:12:57;97072.25;;;-5.11;74.89
14242;BME280;7205;50.864;12.766;2022-11-20T06:15:24;97062.88;;;-5.12;75.10
14242;BME280;7205;50.864;12.766;2022-11-20T06:17:52;97060.41;;;-5.13;74.81
14242;BME280;7205;50.864;12.766;2022-11-20T06:20:19;97069.06;;;-5.14;74.93
14242;BME280;7205;50.864;12.766;2022-11-20T06:22:45;97068.13;;;-5.13;75.10
14242;BME280;7205;50.864;12.766;2022-11-20T06:25:14;97062.16;;;-5.14;74.85
14242;BME280;7205;50.864;12.766;2022-11-20T06:27:41;97064.72;;;-5.14;75.19
14242;BME280;7205;50.864;12.766;2022-11-20T06:30:09;97062.88;;;-5.12;75.31
14242;BME280;7205;50.864;12.766;2022-11-20T06:32:36;97062.78;;;-5.10;75.50
14242;BME280;7205;50.864;12.766;2022-11-20T06:35:03;97066.84;;;-5.06;75.33
14242;BME280;7205;50.864;12.766;2022-11-20T06:37:30;97059.88;;;-5.04;75.55
14242;BME280;7205;50.864;12.766;2022-11-20T06:39:57;97063.03;;;-5.00;75.43
14242;BME280;7205;50.864;12.766;2022-11-20T06:42:25;97065.25;;;-4.94;75.60
14242;BME280;7205;50.864;12.766;2022-11-20T06:44:52;97064.13;;;-4.90;75.80
14242;BME280;7205;50.864;12.766;2022-11-20T06:47:19;97061.09;;;-4.83;76.23
14242;BME280;7205;50.864;12.766;2022-11-20T06:49:46;97064.31;;;-4.79;76.34
14242;BME280;7205;50.864;12.766;2022-11-20T06:52:12;97068.25;;;-4.74;76.37
14242;BME280;7205;50.864;12.766;2022-11-20T06:54:39;97063.53;;;-4.67;76.69
14242;BME280;7205;50.864;12.766;2022-11-20T06:57:06;97074.38;;;-4.62;76.80
14242;BME280;7205;50.864;12.766;2022-11-20T06:59:34;97070.47;;;-4.55;76.79
14242;BME280;7205;50.864;12.766;2022-11-20T07:02:01;97065.94;;;-4.52;76.46
14242;BME280;7205;50.864;12.766;2022-11-20T07:04:28;97069.06;;;-4.47;77.18
14242;BME280;7205;50.864;12.766;2022-11-20T07:06:54;97074.75;;;-4.42;77.22
14242;BME280;7205;50.864;12.766;2022-11-20T07:09:21;97079.63;;;-4.37;76.91
14242;BME280;7205;50.864;12.766;2022-11-20T07:11:48;97076.53;;;-4.30;77.60
14242;BME280;7205;50.864;12.766;2022-11-20T07:14:15;97082.09;;;-4.23;77.56
14242;BME280;7205;50.864;12.766;2022-11-20T07:16:43;97082.38;;;-4.14;77.69
14242;BME280;7205;50.864;12.766;2022-11-20T07:19:10;97084.44;;;-4.06;77.63
14242;BME280;7205;50.864;12.766;2022-11-20T07:21:37;97084.94;;;-4.01;77.84
14242;BME280;7205;50.864;12.766;2022-11-20T07:24:04;97084.47;;;-3.94;78.26
14242;BME280;7205;50.864;12.766;2022-11-20T07:26:31;97078.06;;;-3.88;78.26
14242;BME280;7205;50.864;12.766;2022-11-20T07:28:58;97076.72;;;-3.81;78.47
14242;BME280;7205;50.864;12.766;2022-11-20T07:31:25;97065.81;;;-3.72;78.65
14242;BME280;7205;50.864;12.766;2022-11-20T07:33:53;97065.28;;;-3.64;78.73
14242;BME280;7205;50.864;12.766;2022-11-20T07:36:20;97067.28;;;-3.55;78.86
14242;BME280;7205;50.864;12.766;2022-11-20T07:38:47;97065.41;;;-3.41;79.35
14242;BME280;7205;50.864;12.766;2022-11-20T07:41:14;97067.78;;;-3.25;79.93
14242;BME280;7205;50.864;12.766;2022-11-20T07:43:41;97063.09;;;-3.08;80.20
14242;BME280;7205;50.864;12.766;2022-11-20T07:46:08;97055.22;;;-2.94;80.50
14242;BME280;7205;50.864;12.766;2022-11-20T07:48:35;97060.13;;;-2.78;81.13
14242;BME280;7205;50.864;12.766;2022-11-20T07:51:04;97062.06;;;-2.69;81.41
14242;BME280;7205;50.864;12.766;2022-11-20T07:53:31;97066.34;;;-2.57;81.64
14242;BME280;7205;50.864;12.766;2022-11-20T07:55:59;97066.31;;;-2.44;81.58
14242;BME280;7205;50.864;12.766;2022-11-20T07:58:26;97066.25;;;-2.32;82.02
14242;BME280;7205;50.864;12.766;2022-11-20T08:00:55;97062.91;;;-2.21;82.31
14242;BME280;7205;50.864;12.766;2022-11-20T08:03:22;97056.59;;;-2.06;82.85
14242;BME280;7205;50.864;12.766;2022-11-20T08:05:49;97056.41;;;-1.92;82.91
14242;BME280;7205;50.864;12.766;2022-11-20T08:08:17;97051.16;;;-1.80;83.22
14242;BME280;7205;50.864;12.766;2022-11-20T08:10:44;97052.84;;;-1.68;83.50
14242;BME280;7205;50.864;12.766;2022-11-20T08:13:14;97052.13;;;-1.59;83.53
14242;BME280;7205;50.864;12.766;2022-11-20T08:15:58;97042.59;;;-1.47;83.31
14242;BME280;7205;50.864;12.766;2022-11-20T08:18:25;97044.38;;;-1.37;83.69
14242;BME280;7205;50.864;12.766;2022-11-20T08:20:52;97038.41;;;-1.26;83.52
14242;BME280;7205;50.864;12.766;2022-11-20T08:23:20;97041.34;;;-1.19;83.41
14242;BME280;7205;50.864;12.766;2022-11-20T08:25:50;97036.03;;;-1.18;83.34
14242;BME280;7205;50.864;12.766;2022-11-20T08:28:17;97040.72;;;-1.12;83.31
14242;BME280;7205;50.864;12.766;2022-11-20T08:30:43;97035.56;;;-1.12;83.25
14242;BME280;7205;50.864;12.766;2022-11-20T08:33:11;97041.44;;;-1.10;83.17
14242;BME280;7205;50.864;12.766;2022-11-20T08:35:38;97029.91;;;-1.06;82.98
14242;BME280;7205;50.864;12.766;2022-11-20T08:38:06;97028.38;;;-0.97;83.83
14242;BME280;7205;50.864;12.766;2022-11-20T08:40:34;97036.47;;;-0.80;84.26
14242;BME280;7205;50.864;12.766;2022-11-20T08:43:01;97031.63;;;-0.62;85.05
14242;BME280;7205;50.864;12.766;2022-11-20T10:43:52;97021.06;;;1.53;76.84
14242;BME280;7205;50.864;12.766;2022-11-20T10:46:22;97015.16;;;1.51;76.92
14242;BME280;7205;50.864;12.766;2022-11-20T10:48:50;97012.97;;;1.47;76.67
14242;BME280;7205;50.864;12.766;2022-11-20T10:51:31;97008.06;;;1.44;76.31
14242;BME280;7205;50.864;12.766;2022-11-20T10:54:10;97001.59;;;1.38;76.55
14242;BME280;7205;50.864;12.766;2022-11-20T10:56:41;97000.13;;;1.36;76.57
14242;BME280;7205;50.864;12.766;2022-11-20T10:59:30;97001.31;;;1.32;75.93
14242;BME280;7205;50.864;12.766;2022-11-20T11:01:59;96998.44;;;1.25;75.90
14242;BME280;7205;50.864;12.766;2022-11-20T11:04:35;96997.88;;;1.21;75.28
14242;BME280;7205;50.864;12.766;2022-11-20T11:07:07;96991.06;;;1.20;75.76
14242;BME280;7205;50.864;12.766;2022-11-20T11:09:42;96983.13;;;1.22;76.25
14242;BME280;7205;50.864;12.766;2022-11-20T11:12:10;96975.59;;;1.28;75.60
14242;BME280;7205;50.864;12.766;2022-11-20T11:14:48;96979.84;;;1.39;76.69
14242;BME280;7205;50.864;12.766;2022-11-20T11:17:25;96977.28;;;1.49;76.38
14242;BME280;7205;50.864;12.766;2022-11-20T11:20:03;96976.28;;;1.59;76.33
14242;BME280;7205;50.864;12.766;2022-11-20T11:22:33;96974.66;;;1.68;76.85
14242;BME280;7205;50.864;12.766;2022-11-20T11:25:00;96973.72;;;1.78;77.16
14242;BME280;7205;50.864;12.766;2022-11-20T11:27:27;96964.53;;;1.84;76.93
14242;BME280;7205;50.864;12.766;2022-11-20T11:30:13;96968.34;;;1.89;76.12
14242;BME280;7205;50.864;12.766;2022-11-20T11:32:40;96966.28;;;1.93;76.37
14242;BME280;7205;50.864;12.766;2022-11-20T11:35:20;96967.38;;;2.00;76.52
14242;BME280;7205;50.864;12.766;2022-11-20T11:37:47;96974.78;;;2.04;75.74
14242;BME280;7205;50.864;12.766;2022-11-20T11:40:17;96965.19;;;2.05;75.81
14242;BME280;7205;50.864;12.766;2022-11-20T11:42:52;96960.66;;;2.07;75.44
14242;BME280;7205;50.864;12.766;2022-11-20T11:45:21;96953.84;;;2.06;75.47
14242;BME280;7205;50.864;12.766;2022-11-20T11:47:47;96944.75;;;2.10;75.41
14242;BME280;7205;50.864;12.766;2022-11-20T11:50:21;96955.72;;;2.13;75.31
14242;BME280;7205;50.864;12.766;2022-11-20T11:52:55;96943.69;;;2.12;75.24
14242;BME280;7205;50.864;12.766;2022-11-20T11:55:29;96934.59;;;2.16;75.37
14242;BME280;7205;50.864;12.766;2022-11-20T11:58:08;96929.69;;;2.13;74.96
14242;BME280;7205;50.864;12.766;2022-11-20T12:00:39;96935.59;;;2.15;75.01
14242;BME280;7205;50.864;12.766;2022-11-20T12:03:13;96921.88;;;2.13;74.40
14242;BME280;7205;50.864;12.766;2022-11-20T12:05:47;96915.84;;;2.13;74.60
14242;BME280;7205;50.864;12.766;2022-11-20T12:08:20;96920.38;;;2.11;74.91
14242;BME280;7205;50.864;12.766;2022-11-20T12:10:53;96929.69;;;2.13;75.05
14242;BME280;7205;50.864;12.766;2022-11-20T12:13:32;96930.81;;;2.11;75.72
14242;BME280;7205;50.864;12.766;2022-11-20T12:16:02;96917.34;;;2.15;75.90
14242;BME280;7205;50.864;12.766;2022-11-20T12:18:30;96925.84;;;2.17;75.66
14242;BME280;7205;50.864;12.766;2022-11-20T12:21:07;96918.84;;;2.18;75.95
14242;BME280;7205;50.864;12.766;2022-11-20T12:23:44;96920.22;;;2.22;75.91
14242;BME280;7205;50.864;12.766;2022-11-20T12:26:31;96914.03;;;2.23;76.84
14242;BME280;7205;50.864;12.766;2022-11-20T12:29:09;96919.09;;;2.24;76.63
14242;BME280;7205;50.864;12.766;2022-11-20T12:31:54;96913.88;;;2.24;76.66
14242;BME280;7205;50.864;12.766;2022-11-20T12:34:52;96905.81;;;2.27;76.97
14242;BME280;7205;50.864;12.766;2022-11-20T12:37:33;96904.16;;;2.26;76.55
14242;BME280;7205;50.864;12.766;2022-11-20T12:40:19;96905.81;;;2.27;77.21
14242;BME280;7205;50.864;12.766;2022-11-20T12:42:59;96910.72;;;2.30;77.35
14242;BME280;7205;50.864;12.766;2022-11-20T12:46:02;96921.00;;;2.32;76.96
14242;BME280;7205;50.864;12.766;2022-11-20T12:49:12;96921.00;;;2.32;77.18
14242;BME280;7205;50.864;12.766;2022-11-20T12:51:55;96920.84;;;2.33;77.59
14242;BME280;7205;50.864;12.766;2022-11-20T12:54:46;96917.44;;;2.33;77.35
14242;BME280;7205;50.864;12.766;2022-11-20T12:57:19;96914.03;;;2.32;77.01
14242;BME280;7205;50.864;12.766;2022-11-20T13:00:10;96921.28;;;2.29;77.15
14242;BME280;7205;50.864;12.766;2022-11-20T13:03:00;96920.06;;;2.23;77.31
14242;BME280;7205;50.864;12.766;2022-11-20T13:05:39;96915.16;;;2.20;76.88
14242;BME280;7205;50.864;12.766;2022-11-20T13:08:18;96913.50;;;2.19;77.17
14242;BME280;7205;50.864;12.766;2022-11-20T13:10:50;96910.78;;;2.21;77.82
14242;BME280;7205;50.864;12.766;2022-11-20T13:13:23;96908.97;;;2.21;77.78
14242;BME280;7205;50.864;12.766;2022-11-20T13:15:57;96909.50;;;2.25;78.22
14242;BME280;7205;50.864;12.766;2022-11-20T13:18:27;96911.28;;;2.24;77.80
14242;BME280;7205;50.864;12.766;2022-11-20T13:20:56;96908.81;;;2.23;77.41
14242;BME280;7205;50.864;12.766;2022-11-20T13:23:24;96913.22;;;2.22;78.02
14242;BME280;7205;50.864;12.766;2022-11-20T13:26:05;96899.38;;;2.22;77.99
14242;BME280;7205;50.864;12.766;2022-11-20T13:28:32;96910.63;;;2.22;78.57
14242;BME280;7205;50.864;12.766;2022-11-20T13:30:59;96913.50;;;2.19;78.40
14242;BME280;7205;50.864;12.766;2022-11-20T13:33:29;96915.44;;;2.17;78.19
14242;BME280;7205;50.864;12.766;2022-11-20T13:35:59;96918.03;;;2.17;77.86
14242;BME280;7205;50.864;12.766;2022-11-20T13:38:26;96924.72;;;2.20;78.74
14242;BME280;7205;50.864;12.766;2022-11-20T13:40:55;96924.03;;;2.18;78.83
14242;BME280;7205;50.864;12.766;2022-11-20T13:43:28;96928.03;;;2.22;78.78
14242;BME280;7205;50.864;12.766;2022-11-20T13:45:57;96919.66;;;2.18;78.58
14242;BME280;7205;50.864;12.766;2022-11-20T13:48:26;96922.28;;;2.18;78.39
14242;BME280;7205;50.864;12.766;2022-11-20T13:51:04;96911.47;;;2.13;78.15
14242;BME280;7205;50.864;12.766;2022-11-20T13:56:36;96904.50;;;2.04;79.03
14242;BME280;7205;50.864;12.766;2022-11-20T13:59:16;96913.56;;;2.00;78.42
14242;BME280;7205;50.864;12.766;2022-11-20T14:01:48;96921.50;;;1.99;79.74
14242;BME280;7205;50.864;12.766;2022-11-20T14:04:19;96915.31;;;2.00;80.00
14242;BME280;7205;50.864;12.766;2022-11-20T14:06:59;96914.53;;;1.90;79.90
14242;BME280;7205;50.864;12.766;2022-11-20T14:09:27;96918.50;;;1.84;78.88
14242;BME280;7205;50.864;12.766;2022-11-20T14:11:57;96920.84;;;1.78;79.51
14242;BME280;7205;50.864;12.766;2022-11-20T14:14:26;96910.75;;;1.65;79.09
14242;BME280;7205;50.864;12.766;2022-11-20T14:17:05;96914.69;;;1.60;79.03
14242;BME280;7205;50.864;12.766;2022-11-20T14:19:33;96909.50;;;1.50;79.11
14242;BME280;7205;50.864;12.766;2022-11-20T14:22:18;96916.06;;;1.45;79.03
14242;BME280;7205;50.864;12.766;2022-11-20T14:24:46;96915.94;;;1.46;79.80
14242;BME280;7205;50.864;12.766;2022-11-20T14:27:28;96918.94;;;1.51;80.23
14242;BME280;7205;50.864;12.766;2022-11-20T14:30:01;96909.38;;;1.52;80.34
14242;BME280;7205;50.864;12.766;2022-11-20T14:32:42;96910.88;;;1.54;80.57
14242;BME280;7205;50.864;12.766;2022-11-20T14:35:16;96917.31;;;1.60;80.83
14242;BME280;7205;50.864;12.766;2022-11-20T14:37:45;96917.84;;;1.63;80.29
14242;BME280;7205;50.864;12.766;2022-11-20T14:40:26;96918.81;;;1.62;80.81
14242;BME280;7205;50.864;12.766;2022-11-20T14:42:54;96924.03;;;1.62;80.53
14242;BME280;7205;50.864;12.766;2022-11-20T14:45:23;96921.69;;;1.59;80.25
14242;BME280;7205;50.864;12.766;2022-11-20T14:47:51;96915.41;;;1.52;80.13
14242;BME280;7205;50.864;12.766;2022-11-20T14:50:22;96912.53;;;1.46;79.34
14242;BME280;7205;50.864;12.766;2022-11-20T14:52:51;96919.38;;;1.37;79.26
14242;BME280;7205;50.864;12.766;2022-11-20T14:55:32;96915.41;;;1.23;79.30
14242;BME280;7205;50.864;12.766;2022-11-20T14:58:28;96913.03;;;1.11;78.75
14242;BME280;7205;50.864;12.766;2022-11-20T15:01:41;96910.16;;;0.95;79.03
14242;BME280;7205;50.864;12.766;2022-11-20T15:05:43;96911.06;;;0.84;79.36
14242;BME280;7205;50.864;12.766;2022-11-20T15:07:49;96912.97;;;0.73;79.17
14242;BME280;7205;50.864;12.766;2022-11-20T15:10:21;96914.31;;;0.67;79.69
14242;BME280;7205;50.864;12.766;2022-11-20T15:13:06;96916.47;;;0.53;79.47
14242;BME280;7205;50.864;12.766;2022-11-20T15:15:43;96915.91;;;0.49;80.02
14242;BME280;7205;50.864;12.766;2022-11-20T15:18:13;96910.69;;;0.40;80.15
14242;BME280;7205;50.864;12.766;2022-11-20T15:20:41;96911.88;;;0.36;80.39
14242;BME280;7205;50.864;12.766;2022-11-20T15:26:59;96912.47;;;0.19;80.83
14242;BME280;7205;50.864;12.766;2022-11-20T15:29:26;96913.84;;;0.13;80.94
14242;BME280;7205;50.864;12.766;2022-11-20T15:31:53;96922.69;;;0.11;80.60
14242;BME280;7205;50.864;12.766;2022-11-20T15:34:23;96922.94;;;0.08;80.71
14242;BME280;7205;50.864;12.766;2022-11-20T15:36:50;96915.00;;;-0.01;81.08